Time;durP1;ratioP1;P1;durP2;ratioP2;P2;SDS_P1;SDS_P2;PMS_P1;PMS_P2;Temp;Humidity;BMP_temperature;BMP_pressure;BME280_temperature;BME280_humidity;BME280_pressure;Samples;Min_cycle;Max_cycle;Signal;HPM_P1;HPM_P2
2021/07/24 00:00:28;;;;;;;;;;;19.50;41.30;;;;;;5068317;28;19951;-85
2021/07/24 00:02:53;;;;;;;;;;;19.50;41.30;;;;;;5062515;28;20365;-84
2021/07/24 00:05:19;;;;;;;;;;;19.50;41.40;;;;;;5047701;28;19912;-84
2021/07/24 00:07:44;;;;;;;;;;;19.40;41.40;;;;;;5046064;28;20315;-84
2021/07/24 00:10:10;;;;;;;;;;;19.40;41.50;;;;;;5051445;28;19932;-84
2021/07/24 00:12:35;;;;;;;;;;;19.30;41.60;;;;;;5077989;28;19920;-84
2021/07/24 00:15:01;;;;;;;;;;;19.20;41.60;;;;;;5082017;28;19912;-84
2021/07/24 00:17:26;;;;;;;;;;;19.20;41.80;;;;;;5076787;28;19912;-84
2021/07/24 00:19:52;;;;;;;;;;;19.10;41.80;;;;;;5065805;28;19920;-84
2021/07/24 00:22:17;;;;;;;;;;;19.10;41.90;;;;;;5069861;28;19912;-84
2021/07/24 00:24:43;;;;;;;;;;;19.10;42.00;;;;;;5064518;28;19915;-84
2021/07/24 00:27:09;;;;;;;;;;;19.10;42.00;;;;;;5072079;28;19913;-85
2021/07/24 00:29:35;;;;;;;;;;;19.10;42.10;;;;;;5063907;28;19915;-85
2021/07/24 00:32:00;;;;;;;;;;;19.00;42.10;;;;;;5072221;28;19913;-84
2021/07/24 00:34:26;;;;;;;;;;;19.00;42.10;;;;;;5061674;28;22487;-84
2021/07/24 00:36:51;;;;;;;;;;;19.00;42.20;;;;;;5071663;28;19966;-84
2021/07/24 00:39:16;;;;;;;;;;;19.00;42.30;;;;;;5062154;28;19908;-84
2021/07/24 00:41:45;;;;;;;;;;;18.90;42.30;;;;;;5069749;28;19919;-84
2021/07/24 00:44:11;;;;;;;;;;;18.90;42.30;;;;;;5061633;28;19939;-84
2021/07/24 00:46:37;;;;;;;;;;;18.90;42.40;;;;;;5076146;28;20011;-84
2021/07/24 00:49:03;;;;;;;;;;;18.90;42.40;;;;;;5082177;28;19909;-84
2021/07/24 00:51:31;;;;;;;;;;;18.80;42.50;;;;;;5062749;28;19913;-85
2021/07/24 00:53:57;;;;;;;;;;;18.80;42.50;;;;;;5059672;28;19916;-84
2021/07/24 00:56:24;;;;;;;;;;;18.80;42.50;;;;;;5073932;28;19920;-84
2021/07/24 00:58:50;;;;;;;;;;;18.80;42.60;;;;;;5059323;28;19954;-84
2021/07/24 01:01:15;;;;;;;;;;;18.70;42.50;;;;;;5072801;28;19962;-85
2021/07/24 01:03:41;;;;;;;;;;;18.70;42.60;;;;;;5061773;28;19915;-84
2021/07/24 01:06:06;;;;;;;;;;;18.70;42.60;;;;;;5071928;28;19916;-84
2021/07/24 01:08:32;;;;;;;;;;;18.70;42.70;;;;;;5062465;28;19924;-84
2021/07/24 01:10:58;;;;;;;;;;;18.60;42.70;;;;;;5070906;28;19920;-84
2021/07/24 01:13:23;;;;;;;;;;;18.60;42.80;;;;;;5071423;28;20436;-84
2021/07/24 01:15:50;;;;;;;;;;;18.60;42.90;;;;;;5079649;28;19962;-84
2021/07/24 01:18:16;;;;;;;;;;;18.50;42.90;;;;;;5062972;28;19917;-84
2021/07/24 01:20:42;;;;;;;;;;;18.50;43.00;;;;;;5081616;28;19931;-85
2021/07/24 01:23:11;;;;;;;;;;;18.50;43.00;;;;;;5079088;28;19918;-84
2021/07/24 01:25:47;;;;;;;;;;;18.50;43.00;;;;;;5076103;28;19913;-84
2021/07/24 01:28:13;;;;;;;;;;;18.50;43.10;;;;;;5067058;28;19997;-84
2021/07/24 01:30:40;;;;;;;;;;;18.40;43.10;;;;;;5081982;28;19936;-84
2021/07/24 01:33:05;;;;;;;;;;;18.50;43.20;;;;;;5062364;28;19921;-84
2021/07/24 01:35:31;;;;;;;;;;;18.40;43.20;;;;;;5061673;28;19915;-84
2021/07/24 01:37:56;;;;;;;;;;;18.40;43.20;;;;;;5076540;28;19974;-84
2021/07/24 01:40:22;;;;;;;;;;;18.40;43.30;;;;;;5082126;28;19955;-83
2021/07/24 01:42:47;;;;;;;;;;;18.40;43.30;;;;;;5066461;28;19920;-84
2021/07/24 01:45:12;;;;;;;;;;;18.30;43.30;;;;;;5062467;28;19920;-85
2021/07/24 01:47:38;;;;;;;;;;;18.30;43.40;;;;;;5065191;28;19958;-84
2021/07/24 01:52:49;;;;;;;;;;;18.30;43.50;;;;;;5060846;28;19920;-84
2021/07/24 01:55:22;;;;;;;;;;;18.20;43.50;;;;;;5068527;28;19912;-85
2021/07/24 01:57:50;;;;;;;;;;;18.20;43.50;;;;;;5080139;28;19908;-84
2021/07/24 02:00:17;;;;;;;;;;;18.20;43.60;;;;;;5078718;28;19918;-84
2021/07/24 02:02:43;;;;;;;;;;;18.20;43.70;;;;;;5080224;28;19908;-84
2021/07/24 02:05:26;;;;;;;;;;;18.10;43.60;;;;;;5060935;28;19996;-84
2021/07/24 02:07:53;;;;;;;;;;;18.10;43.80;;;;;;5060513;28;19913;-82
2021/07/24 02:10:18;;;;;;;;;;;18.10;43.90;;;;;;5072683;28;19912;-85
2021/07/24 02:12:44;;;;;;;;;;;18.10;44.00;;;;;;5070963;28;20019;-84
2021/07/24 02:15:10;;;;;;;;;;;18.00;44.00;;;;;;5079364;28;19912;-84
2021/07/24 02:17:36;;;;;;;;;;;18.00;44.00;;;;;;5045698;28;19924;-84
2021/07/24 02:20:02;;;;;;;;;;;18.00;44.10;;;;;;5044471;28;20396;-84
2021/07/24 02:22:28;;;;;;;;;;;18.00;44.20;;;;;;5066896;28;19920;-85
2021/07/24 02:24:53;;;;;;;;;;;17.90;44.20;;;;;;5061493;28;19909;-84
2021/07/24 02:27:19;;;;;;;;;;;17.90;44.30;;;;;;5064307;28;19966;-84
2021/07/24 02:29:44;;;;;;;;;;;17.90;44.30;;;;;;5061931;28;20325;-84
2021/07/24 02:32:10;;;;;;;;;;;17.90;44.30;;;;;;5063215;28;19917;-84
2021/07/24 02:34:35;;;;;;;;;;;17.80;44.40;;;;;;5064068;28;19923;-84
2021/07/24 02:37:01;;;;;;;;;;;17.90;44.50;;;;;;5069760;28;19913;-84
2021/07/24 02:39:26;;;;;;;;;;;17.80;44.50;;;;;;5063751;28;19936;-85
2021/07/24 02:41:52;;;;;;;;;;;17.80;44.50;;;;;;5079689;28;19976;-84
2021/07/24 02:44:17;;;;;;;;;;;17.80;44.70;;;;;;5066416;28;19920;-85
2021/07/24 02:46:42;;;;;;;;;;;17.70;44.60;;;;;;5072804;28;19934;-85
2021/07/24 02:49:09;;;;;;;;;;;17.70;44.70;;;;;;5074723;28;19972;-85
2021/07/24 02:51:34;;;;;;;;;;;17.60;44.70;;;;;;5073696;28;19917;-85
2021/07/24 02:54:00;;;;;;;;;;;17.60;44.80;;;;;;5065310;28;19916;-85
2021/07/24 02:56:26;;;;;;;;;;;17.60;44.90;;;;;;5072698;28;19940;-85
2021/07/24 02:58:51;;;;;;;;;;;17.50;44.90;;;;;;5065216;28;19980;-84
2021/07/24 03:01:16;;;;;;;;;;;17.50;45.00;;;;;;5056642;28;19916;-85
2021/07/24 03:03:42;;;;;;;;;;;17.50;45.20;;;;;;5086117;28;19912;-85
2021/07/24 03:06:07;;;;;;;;;;;17.40;45.20;;;;;;5085941;28;19919;-84
2021/07/24 03:08:33;;;;;;;;;;;17.30;45.30;;;;;;5105781;23;19924;-83
2021/07/24 03:11:08;;;;;;;;;;;;;;;;;;;;;
2021/07/24 03:13:37;;;;;;;;;;;17.20;45.50;;;;;;5078115;28;20362;-83
2021/07/24 03:16:02;;;;;;;;;;;17.20;45.60;;;;;;5090412;28;19913;-85
2021/07/24 03:18:30;;;;;;;;;;;17.20;45.70;;;;;;5090528;28;19958;-84
2021/07/24 03:20:55;;;;;;;;;;;17.10;45.70;;;;;;5083582;28;19934;-84
2021/07/24 03:23:21;;;;;;;;;;;17.00;45.80;;;;;;5052617;28;19956;-84
2021/07/24 03:25:46;;;;;;;;;;;17.00;46.00;;;;;;5081076;28;19912;-84
2021/07/24 03:28:12;;;;;;;;;;;16.80;46.10;;;;;;5090950;28;19909;-84
2021/07/24 03:30:38;;;;;;;;;;;16.80;46.40;;;;;;5082563;28;19913;-85
2021/07/24 03:33:04;;;;;;;;;;;16.80;46.60;;;;;;5073229;28;19912;-84
2021/07/24 03:35:29;;;;;;;;;;;16.70;46.80;;;;;;5062601;28;20295;-84
2021/07/24 03:37:55;;;;;;;;;;;16.80;47.00;;;;;;5070632;28;19913;-84
2021/07/24 03:40:23;;;;;;;;;;;16.80;47.40;;;;;;5068953;28;19920;-84
2021/07/24 03:42:48;;;;;;;;;;;16.80;48.10;;;;;;5072868;28;19913;-84
2021/07/24 03:45:14;;;;;;;;;;;16.80;48.50;;;;;;5070967;28;19964;-83
2021/07/24 03:47:39;;;;;;;;;;;16.90;48.60;;;;;;5068001;28;19942;-84
2021/07/24 03:50:05;;;;;;;;;;;16.90;48.70;;;;;;5070964;28;19963;-84
2021/07/24 03:52:30;;;;;;;;;;;17.00;48.80;;;;;;5071907;28;19913;-84
2021/07/24 03:54:56;;;;;;;;;;;17.10;49.10;;;;;;5092468;28;19919;-84
2021/07/24 03:57:22;;;;;;;;;;;17.10;49.20;;;;;;5072075;28;20365;-84
2021/07/24 03:59:47;;;;;;;;;;;17.20;49.20;;;;;;5069265;28;19955;-84
2021/07/24 04:02:18;;;;;;;;;;;17.30;49.20;;;;;;5069908;28;19959;-84
2021/07/24 04:04:51;;;;;;;;;;;17.30;49.10;;;;;;5051395;28;20004;-84
2021/07/24 04:07:17;;;;;;;;;;;17.40;49.10;;;;;;5067061;28;19966;-84
2021/07/24 04:09:43;;;;;;;;;;;17.50;49.00;;;;;;5068345;28;19913;-84
2021/07/24 04:12:12;;;;;;;;;;;17.50;49.00;;;;;;5071547;28;19999;-84
2021/07/24 04:14:37;;;;;;;;;;;17.60;49.00;;;;;;5069743;28;19916;-84
2021/07/24 04:17:03;;;;;;;;;;;17.60;48.90;;;;;;5082910;28;19960;-84
2021/07/24 04:19:31;;;;;;;;;;;17.70;49.00;;;;;;5070021;28;20389;-84
2021/07/24 04:21:56;;;;;;;;;;;17.80;49.00;;;;;;5068760;28;19917;-85
2021/07/24 04:24:22;;;;;;;;;;;17.80;49.00;;;;;;5068848;28;20309;-85
2021/07/24 04:26:47;;;;;;;;;;;17.90;49.00;;;;;;5079074;28;19920;-85
2021/07/24 04:29:12;;;;;;;;;;;17.90;48.90;;;;;;5069770;28;19959;-84
2021/07/24 04:31:38;;;;;;;;;;;17.90;48.90;;;;;;5060977;28;19920;-84
2021/07/24 04:34:03;;;;;;;;;;;18.00;48.90;;;;;;5049804;28;19924;-85
2021/07/24 04:36:29;;;;;;;;;;;18.00;48.80;;;;;;5067922;28;19917;-85
2021/07/24 04:38:54;;;;;;;;;;;18.00;48.80;;;;;;5051607;28;19935;-84
2021/07/24 04:41:21;;;;;;;;;;;18.00;48.90;;;;;;5068396;28;19948;-84
2021/07/24 04:43:49;;;;;;;;;;;18.00;48.90;;;;;;5054779;28;19922;-84
2021/07/24 04:46:14;;;;;;;;;;;18.10;49.10;;;;;;5069645;28;19913;-84
2021/07/24 04:48:40;;;;;;;;;;;18.10;49.00;;;;;;5050689;28;19920;-85
2021/07/24 04:51:06;;;;;;;;;;;18.10;49.00;;;;;;5073893;28;19900;-84
2021/07/24 04:53:32;;;;;;;;;;;18.20;49.20;;;;;;5073526;28;19924;-84
2021/07/24 04:55:58;;;;;;;;;;;18.20;49.30;;;;;;5084666;28;19935;-83
2021/07/24 04:58:24;;;;;;;;;;;18.20;49.30;;;;;;5055927;28;20000;-86
2021/07/24 05:00:49;;;;;;;;;;;18.20;49.40;;;;;;5069362;28;20012;-85
2021/07/24 05:03:15;;;;;;;;;;;18.30;49.50;;;;;;5067744;28;19921;-84
2021/07/24 05:05:41;;;;;;;;;;;18.40;49.40;;;;;;5044797;28;20364;-84
2021/07/24 05:08:07;;;;;;;;;;;18.50;49.40;;;;;;5051676;28;19927;-84
2021/07/24 05:10:32;;;;;;;;;;;18.60;49.30;;;;;;5084540;28;19920;-84
2021/07/24 05:12:58;;;;;;;;;;;18.70;49.30;;;;;;5068822;28;20011;-84
2021/07/24 05:15:24;;;;;;;;;;;18.80;49.20;;;;;;5051565;28;19921;-84
2021/07/24 05:17:50;;;;;;;;;;;18.90;49.10;;;;;;5070245;28;19990;-84
2021/07/24 05:20:18;;;;;;;;;;;19.00;49.00;;;;;;5052048;28;19916;-84
2021/07/24 05:22:43;;;;;;;;;;;19.10;49.00;;;;;;5067930;28;19920;-84
2021/07/24 05:25:11;;;;;;;;;;;19.10;49.00;;;;;;5068861;28;19919;-84
2021/07/24 05:27:37;;;;;;;;;;;19.10;49.00;;;;;;5066372;28;20366;-85
2021/07/24 05:30:03;;;;;;;;;;;19.10;49.10;;;;;;5068717;28;19923;-84
2021/07/24 05:32:29;;;;;;;;;;;19.30;49.20;;;;;;5067871;28;19919;-84
2021/07/24 05:34:54;;;;;;;;;;;19.40;49.00;;;;;;5068729;28;19912;-84
2021/07/24 05:37:20;;;;;;;;;;;19.50;49.00;;;;;;5054064;28;19995;-84
2021/07/24 05:39:48;;;;;;;;;;;19.70;48.90;;;;;;5072761;28;19920;-83
2021/07/24 05:42:14;;;;;;;;;;;19.70;48.90;;;;;;5058360;28;19913;-84
2021/07/24 05:44:39;;;;;;;;;;;19.90;48.90;;;;;;5040561;28;19913;-84
2021/07/24 05:47:05;;;;;;;;;;;20.10;48.80;;;;;;5057180;28;19964;-83
2021/07/24 05:49:30;;;;;;;;;;;20.30;48.80;;;;;;5058540;28;20432;-84
2021/07/24 05:51:56;;;;;;;;;;;20.50;48.80;;;;;;5080031;28;19912;-83
2021/07/24 05:54:23;;;;;;;;;;;20.70;48.60;;;;;;5044526;28;19917;-83
2021/07/24 05:56:51;;;;;;;;;;;20.90;48.50;;;;;;5058038;28;19913;-83
2021/07/24 05:59:16;;;;;;;;;;;21.10;48.50;;;;;;5041333;28;19917;-84
2021/07/24 06:01:42;;;;;;;;;;;21.20;48.40;;;;;;5057778;28;19992;-84
2021/07/24 06:04:09;;;;;;;;;;;21.40;48.40;;;;;;5057513;28;19947;-84
2021/07/24 06:06:35;;;;;;;;;;;21.70;48.20;;;;;;5061507;28;19912;-83
2021/07/24 06:09:01;;;;;;;;;;;22.20;47.90;;;;;;5041959;28;20003;-84
2021/07/24 06:11:26;;;;;;;;;;;22.50;47.50;;;;;;5058764;28;19917;-84
2021/07/24 06:13:52;;;;;;;;;;;22.60;47.40;;;;;;5059102;28;19963;-84
2021/07/24 06:16:19;;;;;;;;;;;22.60;47.40;;;;;;5043879;28;20376;-84
2021/07/24 06:18:45;;;;;;;;;;;22.40;47.70;;;;;;5058257;28;19935;-83
2021/07/24 06:21:14;;;;;;;;;;;22.20;48.20;;;;;;5065429;28;20356;-84
2021/07/24 06:23:40;;;;;;;;;;;22.00;48.60;;;;;;5059670;28;19913;-84
2021/07/24 06:26:05;;;;;;;;;;;21.90;48.90;;;;;;5058235;28;20364;-84
2021/07/24 06:28:31;;;;;;;;;;;21.80;49.10;;;;;;5052712;28;19920;-84
2021/07/24 06:31:00;;;;;;;;;;;21.80;49.40;;;;;;5049938;28;20380;-84
2021/07/24 06:33:25;;;;;;;;;;;21.80;49.60;;;;;;5057887;28;19917;-84
2021/07/24 06:35:51;;;;;;;;;;;21.70;49.80;;;;;;5057175;28;19913;-84
2021/07/24 06:38:16;;;;;;;;;;;21.70;50.00;;;;;;5059214;28;19932;-84
2021/07/24 06:40:42;;;;;;;;;;;21.80;50.40;;;;;;5059123;28;20306;-84
2021/07/24 06:43:07;;;;;;;;;;;21.80;51.20;;;;;;5056117;28;21470;-84
2021/07/24 06:45:33;;;;;;;;;;;21.90;51.70;;;;;;5058830;28;19946;-84
2021/07/24 06:47:58;;;;;;;;;;;22.00;52.20;;;;;;5038744;28;19956;-84
2021/07/24 06:50:24;;;;;;;;;;;22.10;52.10;;;;;;5057940;28;19936;-84
2021/07/24 06:52:52;;;;;;;;;;;22.30;51.90;;;;;;5058392;28;20499;-84
2021/07/24 06:55:20;;;;;;;;;;;22.60;51.70;;;;;;5040297;28;20533;-83
2021/07/24 06:57:46;;;;;;;;;;;22.80;51.60;;;;;;5041092;28;20146;-84
2021/07/24 07:00:11;;;;;;;;;;;23.00;51.40;;;;;;5058014;28;19912;-84
2021/07/24 07:02:37;;;;;;;;;;;23.20;51.30;;;;;;5056445;28;19920;-84
2021/07/24 07:05:02;;;;;;;;;;;23.40;51.30;;;;;;5059329;28;19912;-84
2021/07/24 07:07:28;;;;;;;;;;;23.60;51.20;;;;;;5042266;28;19956;-84
2021/07/24 07:09:53;;;;;;;;;;;23.90;51.10;;;;;;5058858;28;20003;-84
2021/07/24 07:12:21;;;;;;;;;;;24.30;51.00;;;;;;5058575;28;19909;-84
2021/07/24 07:14:47;;;;;;;;;;;24.60;50.70;;;;;;5041932;28;19920;-84
2021/07/24 07:17:14;;;;;;;;;;;25.00;50.50;;;;;;5044807;28;19944;-84
2021/07/24 07:19:42;;;;;;;;;;;25.20;50.40;;;;;;5062912;28;19919;-84
2021/07/24 07:22:08;;;;;;;;;;;25.30;50.20;;;;;;5047021;28;19960;-84
2021/07/24 07:24:33;;;;;;;;;;;25.40;50.30;;;;;;5064061;28;19967;-84
2021/07/24 07:26:59;;;;;;;;;;;25.80;50.30;;;;;;5065120;28;19919;-84
2021/07/24 07:29:24;;;;;;;;;;;26.30;50.00;;;;;;5068793;28;19939;-84
2021/07/24 07:31:50;;;;;;;;;;;26.70;49.60;;;;;;5063549;28;19928;-84
2021/07/24 07:34:15;;;;;;;;;;;27.40;49.20;;;;;;5067252;28;19954;-84
2021/07/24 07:36:41;;;;;;;;;;;28.20;48.20;;;;;;5069053;28;19975;-85
2021/07/24 07:39:06;;;;;;;;;;;28.70;47.40;;;;;;5065365;28;19916;-84
2021/07/24 07:41:32;;;;;;;;;;;29.00;47.10;;;;;;5066512;28;19958;-85
2021/07/24 07:43:57;;;;;;;;;;;29.00;46.90;;;;;;5067100;28;19924;-84
2021/07/24 07:46:25;;;;;;;;;;;28.90;47.00;;;;;;5045718;28;19916;-84
2021/07/24 07:48:51;;;;;;;;;;;28.90;47.10;;;;;;5060374;28;19936;-84
2021/07/24 07:51:16;;;;;;;;;;;28.70;47.20;;;;;;5057510;28;20415;-83
2021/07/24 07:53:42;;;;;;;;;;;28.40;47.60;;;;;;5066567;28;20296;-84
2021/07/24 07:56:09;;;;;;;;;;;28.20;48.00;;;;;;5059015;28;19959;-83
2021/07/24 07:58:36;;;;;;;;;;;27.90;48.20;;;;;;5058353;28;20308;-84
2021/07/24 08:01:07;;;;;;;;;;;27.70;48.50;;;;;;5070374;28;20283;-84
2021/07/24 08:03:33;;;;;;;;;;;27.60;48.70;;;;;;5054127;28;19971;-83
2021/07/24 08:05:58;;;;;;;;;;;27.50;48.60;;;;;;5068292;28;19952;-83
2021/07/24 08:08:24;;;;;;;;;;;27.30;48.80;;;;;;5060163;28;19987;-84
2021/07/24 08:10:49;;;;;;;;;;;27.20;49.00;;;;;;5057858;28;20531;-84
2021/07/24 08:13:18;;;;;;;;;;;27.20;49.10;;;;;;5041267;28;19931;-83
2021/07/24 08:15:44;;;;;;;;;;;27.10;49.30;;;;;;5042084;28;19913;-83
2021/07/24 08:18:10;;;;;;;;;;;26.90;49.50;;;;;;5056829;28;19913;-83
2021/07/24 08:20:39;;;;;;;;;;;26.70;49.70;;;;;;5057901;28;19940;-83
2021/07/24 08:23:05;;;;;;;;;;;26.60;50.00;;;;;;5053044;28;19958;-83
2021/07/24 08:25:31;;;;;;;;;;;26.60;50.20;;;;;;5062113;28;19913;-83
2021/07/24 08:28:00;;;;;;;;;;;26.60;50.30;;;;;;5042282;28;20423;-83
2021/07/24 08:30:26;;;;;;;;;;;26.60;50.20;;;;;;5036871;28;19917;-83
2021/07/24 08:32:51;;;;;;;;;;;26.40;50.40;;;;;;5055547;28;19923;-84
2021/07/24 08:35:17;;;;;;;;;;;26.20;50.70;;;;;;5057803;28;19912;-84
2021/07/24 08:37:45;;;;;;;;;;;26.00;51.10;;;;;;5040651;28;19924;-84
2021/07/24 08:40:14;;;;;;;;;;;25.80;51.50;;;;;;5049029;28;19909;-83
2021/07/24 08:42:40;;;;;;;;;;;25.50;52.00;;;;;;5047101;28;19913;-84
2021/07/24 08:45:08;;;;;;;;;;;25.30;52.60;;;;;;5042865;28;20041;-84
2021/07/24 08:47:34;;;;;;;;;;;25.00;53.20;;;;;;5063254;28;19923;-83
2021/07/24 08:50:03;;;;;;;;;;;24.70;54.00;;;;;;5072725;28;19938;-84
2021/07/24 08:52:30;;;;;;;;;;;24.50;54.80;;;;;;5058461;28;19918;-84
2021/07/24 08:54:56;;;;;;;;;;;24.20;55.30;;;;;;5031646;28;19917;-84
2021/07/24 08:57:24;;;;;;;;;;;24.00;55.80;;;;;;5059951;28;20291;-84
2021/07/24 08:59:51;;;;;;;;;;;23.80;56.20;;;;;;5036406;28;19970;-84
2021/07/24 09:02:19;;;;;;;;;;;23.70;56.60;;;;;;5042907;28;19917;-84
2021/07/24 09:04:46;;;;;;;;;;;23.60;57.00;;;;;;5060991;28;19956;-84
2021/07/24 09:07:11;;;;;;;;;;;23.50;57.10;;;;;;5044480;28;19912;-83
2021/07/24 09:09:37;;;;;;;;;;;23.40;57.40;;;;;;5064189;28;20399;-83
2021/07/24 09:12:03;;;;;;;;;;;23.40;57.30;;;;;;5064526;28;20115;-83
2021/07/24 09:14:29;;;;;;;;;;;23.50;57.20;;;;;;5071789;28;19917;-83
2021/07/24 09:16:54;;;;;;;;;;;23.50;57.30;;;;;;5046369;28;19917;-83
2021/07/24 09:19:23;;;;;;;;;;;23.50;57.30;;;;;;5057696;28;20245;-84
2021/07/24 09:21:48;;;;;;;;;;;23.60;57.30;;;;;;5044877;28;19927;-83
2021/07/24 09:24:21;;;;;;;;;;;23.60;57.20;;;;;;5037755;28;19944;-83
2021/07/24 09:26:47;;;;;;;;;;;23.70;57.20;;;;;;5049655;28;19941;-83
2021/07/24 09:29:14;;;;;;;;;;;23.70;57.10;;;;;;5040891;28;19913;-83
2021/07/24 09:31:40;;;;;;;;;;;23.80;57.20;;;;;;5062853;28;19917;-83
2021/07/24 09:34:06;;;;;;;;;;;23.80;57.20;;;;;;5047498;28;19921;-83
2021/07/24 09:36:32;;;;;;;;;;;23.80;57.30;;;;;;5047341;28;19912;-84
2021/07/24 09:39:08;;;;;;;;;;;23.80;57.40;;;;;;5039555;28;20372;-83
2021/07/24 09:41:34;;;;;;;;;;;23.70;57.70;;;;;;5034789;28;19920;-83
2021/07/24 09:44:00;;;;;;;;;;;23.70;58.10;;;;;;5056554;28;19913;-83
2021/07/24 09:46:27;;;;;;;;;;;23.60;58.40;;;;;;5067012;28;19999;-83
2021/07/24 09:48:53;;;;;;;;;;;23.50;59.00;;;;;;5063145;28;19913;-83
2021/07/24 09:51:31;;;;;;;;;;;23.40;59.30;;;;;;5046360;28;19913;-83
2021/07/24 09:53:56;;;;;;;;;;;23.40;59.40;;;;;;5070621;28;19921;-83
2021/07/24 09:56:36;;;;;;;;;;;23.40;59.40;;;;;;5054502;28;20305;-83
2021/07/24 09:59:22;;;;;;;;;;;23.30;59.30;;;;;;5050708;28;19913;-83
2021/07/24 10:01:51;;;;;;;;;;;23.30;59.40;;;;;;5051139;28;19913;-83
2021/07/24 10:04:25;;;;;;;;;;;23.20;59.40;;;;;;5052051;28;19931;-83
2021/07/24 10:06:53;;;;;;;;;;;23.20;59.40;;;;;;5056606;28;19963;-84
2021/07/24 10:09:20;;;;;;;;;;;23.10;59.30;;;;;;5040481;28;19920;-82
2021/07/24 10:11:45;;;;;;;;;;;23.10;59.50;;;;;;5047461;28;19917;-82
2021/07/24 10:14:11;;;;;;;;;;;23.00;59.80;;;;;;5056517;28;19917;-82
2021/07/24 10:16:37;;;;;;;;;;;22.90;61.10;;;;;;5054778;28;19920;-84
2021/07/24 10:19:02;;;;;;;;;;;22.80;61.90;;;;;;5039906;28;19920;-84
2021/07/24 10:21:28;;;;;;;;;;;22.80;62.00;;;;;;5049466;28;19913;-83
2021/07/24 10:23:53;;;;;;;;;;;22.70;61.80;;;;;;5055057;28;20596;-84
2021/07/24 10:26:31;;;;;;;;;;;22.70;61.70;;;;;;5045349;28;19912;-84
2021/07/24 10:29:07;;;;;;;;;;;22.70;61.80;;;;;;5043436;28;19920;-84
2021/07/24 10:31:32;;;;;;;;;;;22.70;61.90;;;;;;5049198;28;19912;-84
2021/07/24 10:33:59;;;;;;;;;;;22.70;62.00;;;;;;5047858;28;19972;-83
2021/07/24 10:36:32;;;;;;;;;;;22.70;61.90;;;;;;5062769;28;19913;-84
2021/07/24 10:38:59;;;;;;;;;;;22.70;61.80;;;;;;5045437;28;19912;-84
2021/07/24 10:41:27;;;;;;;;;;;22.70;61.70;;;;;;5054297;28;19920;-84
2021/07/24 10:44:03;;;;;;;;;;;22.80;61.60;;;;;;5068921;28;20401;-83
2021/07/24 10:46:41;;;;;;;;;;;22.80;61.60;;;;;;5058786;28;19916;-84
2021/07/24 10:49:07;;;;;;;;;;;22.80;61.50;;;;;;5051103;28;20003;-84
2021/07/24 10:51:54;;;;;;;;;;;22.80;61.40;;;;;;5060664;28;20324;-84
2021/07/24 10:54:19;;;;;;;;;;;22.90;61.30;;;;;;5052050;28;19970;-84
2021/07/24 10:56:45;;;;;;;;;;;23.00;61.30;;;;;;5045637;28;19951;-84
2021/07/24 10:59:13;;;;;;;;;;;23.00;61.10;;;;;;5064273;28;20621;-84
2021/07/24 11:02:05;;;;;;;;;;;23.10;61.10;;;;;;5064932;28;19912;-84
2021/07/24 11:04:42;;;;;;;;;;;23.10;60.90;;;;;;5077825;28;19908;-83
2021/07/24 11:07:14;;;;;;;;;;;23.00;61.20;;;;;;5046805;28;19913;-83
2021/07/24 11:10:03;;;;;;;;;;;23.00;62.30;;;;;;5061837;28;20318;-84
2021/07/24 11:12:41;;;;;;;;;;;22.80;63.80;;;;;;5068465;28;19923;-83
2021/07/24 11:15:07;;;;;;;;;;;22.70;65.80;;;;;;5057638;28;20394;-83
2021/07/24 11:17:35;;;;;;;;;;;22.60;67.10;;;;;;5058100;28;19913;-83
2021/07/24 11:20:03;;;;;;;;;;;22.50;68.30;;;;;;5065805;28;19923;-83
2021/07/24 11:22:32;;;;;;;;;;;22.50;68.90;;;;;;5068133;28;20490;-82
2021/07/24 11:24:57;;;;;;;;;;;22.50;70.30;;;;;;5052610;28;19913;-83
2021/07/24 11:27:26;;;;;;;;;;;22.50;71.00;;;;;;5061788;28;19959;-84
2021/07/24 11:29:52;;;;;;;;;;;22.50;71.70;;;;;;5075711;28;19999;-83
2021/07/24 11:32:25;;;;;;;;;;;22.50;72.70;;;;;;5061869;28;19928;-84
2021/07/24 11:34:57;;;;;;;;;;;22.60;72.00;;;;;;5055457;28;19920;-84
2021/07/24 11:37:35;;;;;;;;;;;22.70;71.90;;;;;;5056296;28;20015;-84
2021/07/24 11:40:04;;;;;;;;;;;22.80;71.70;;;;;;5071858;28;19966;-84
2021/07/24 11:42:29;;;;;;;;;;;23.00;71.50;;;;;;5057806;28;19918;-84
2021/07/24 11:44:55;;;;;;;;;;;23.20;71.30;;;;;;5074404;28;20018;-84
2021/07/24 11:47:23;;;;;;;;;;;23.30;71.00;;;;;;5071899;28;19913;-84
2021/07/24 11:49:48;;;;;;;;;;;23.30;70.70;;;;;;5056234;28;19967;-84
2021/07/24 11:52:13;;;;;;;;;;;23.40;70.60;;;;;;5066414;28;19913;-83
2021/07/24 11:54:42;;;;;;;;;;;23.40;70.50;;;;;;5057153;28;19972;-83
2021/07/24 11:57:08;;;;;;;;;;;23.40;70.50;;;;;;5073845;28;19935;-84
2021/07/24 11:59:34;;;;;;;;;;;23.40;70.40;;;;;;5056212;28;19921;-84
2021/07/24 12:02:00;;;;;;;;;;;23.50;70.50;;;;;;5057696;28;19951;-84
2021/07/24 12:04:25;;;;;;;;;;;23.50;70.50;;;;;;5044470;28;19917;-84
2021/07/24 12:06:51;;;;;;;;;;;23.60;70.30;;;;;;5064615;28;19913;-84
2021/07/24 12:09:17;;;;;;;;;;;23.60;70.20;;;;;;5080342;28;19912;-84
2021/07/24 12:11:59;;;;;;;;;;;23.60;70.30;;;;;;5064666;28;19912;-84
2021/07/24 12:14:25;;;;;;;;;;;23.60;70.40;;;;;;5064945;28;19913;-84
2021/07/24 12:17:07;;;;;;;;;;;23.40;70.60;;;;;;5047371;28;19913;-84
2021/07/24 12:19:34;;;;;;;;;;;23.30;71.00;;;;;;5045173;28;19935;-84
2021/07/24 12:22:10;;;;;;;;;;;23.20;71.40;;;;;;5079419;28;19948;-83
2021/07/24 12:24:35;;;;;;;;;;;23.10;71.70;;;;;;5045358;28;19920;-83
2021/07/24 12:27:04;;;;;;;;;;;23.00;72.10;;;;;;5059292;28;19917;-84
2021/07/24 12:29:30;;;;;;;;;;;22.90;72.50;;;;;;5046343;28;19909;-84
2021/07/24 12:31:55;;;;;;;;;;;22.80;73.00;;;;;;5062393;28;19976;-84
2021/07/24 12:34:22;;;;;;;;;;;22.70;73.30;;;;;;5033002;28;20369;-84
2021/07/24 12:36:52;;;;;;;;;;;22.70;73.60;;;;;;5046580;28;20011;-84
2021/07/24 12:39:18;;;;;;;;;;;22.60;73.90;;;;;;5061026;28;19959;-84
2021/07/24 12:41:44;;;;;;;;;;;22.50;74.20;;;;;;5045090;28;19912;-83
2021/07/24 12:44:10;;;;;;;;;;;22.50;74.50;;;;;;5063489;28;19912;-84
2021/07/24 12:46:36;;;;;;;;;;;22.40;74.60;;;;;;5044097;28;19917;-84
2021/07/24 12:49:02;;;;;;;;;;;22.40;74.90;;;;;;5045560;28;19913;-84
2021/07/24 12:51:37;;;;;;;;;;;22.40;75.20;;;;;;5077828;28;19915;-84
2021/07/24 12:54:23;;;;;;;;;;;22.30;75.20;;;;;;5055976;28;19917;-84
2021/07/24 12:56:50;;;;;;;;;;;22.30;75.40;;;;;;5044390;28;19909;-83
2021/07/24 12:59:17;;;;;;;;;;;22.30;75.60;;;;;;5037628;28;20422;-84
2021/07/24 13:01:47;;;;;;;;;;;22.30;75.70;;;;;;5069199;28;19952;-84
2021/07/24 13:04:13;;;;;;;;;;;22.30;75.90;;;;;;5074896;28;19951;-85
2021/07/24 13:06:38;;;;;;;;;;;22.30;76.10;;;;;;5044355;28;19913;-84
2021/07/24 13:09:04;;;;;;;;;;;22.30;76.20;;;;;;5070679;28;19917;-84
2021/07/24 13:11:31;;;;;;;;;;;22.20;77.00;;;;;;5076167;28;19982;-84
2021/07/24 13:13:56;;;;;;;;;;;22.10;77.70;;;;;;5062163;28;19917;-84
2021/07/24 13:16:24;;;;;;;;;;;22.00;78.20;;;;;;5064222;28;19996;-84
2021/07/24 13:18:49;;;;;;;;;;;22.00;78.70;;;;;;5046837;28;19924;-84
2021/07/24 13:21:15;;;;;;;;;;;21.90;79.40;;;;;;5046737;28;19908;-85
2021/07/24 13:23:51;;;;;;;;;;;;;;;;;;;;;
2021/07/24 13:29:40;;;;;;;;;;;22.00;80.30;;;;;;5057812;28;19917;-84
2021/07/24 13:32:16;;;;;;;;;;;22.10;80.40;;;;;;5045735;28;20354;-84
2021/07/24 13:34:54;;;;;;;;;;;;;;;;;;;;;
2021/07/24 13:37:50;;;;;;;;;;;;;;;;;;;;;
2021/07/24 13:40:48;;;;;;;;;;;;;;;;;;;;;
2021/07/24 13:43:24;;;;;;;;;;;;;;;;;;;;;
2021/07/24 13:45:52;;;;;;;;;;;23.10;79.70;;;;;;5043758;28;19976;-84
2021/07/24 13:48:35;;;;;;;;;;;23.20;79.50;;;;;;5054766;28;19924;-84
2021/07/24 13:51:04;;;;;;;;;;;23.30;79.30;;;;;;5064330;28;19909;-84
2021/07/24 13:53:57;;;;;;;;;;;;;;;;;;;;;
2021/07/24 13:56:26;;;;;;;;;;;23.60;79.00;;;;;;5063900;28;19981;-84
2021/07/24 13:58:54;;;;;;;;;;;23.60;79.10;;;;;;5060942;28;19917;-84
2021/07/24 14:01:22;;;;;;;;;;;23.50;79.30;;;;;;5063532;28;19909;-84
2021/07/24 14:03:57;;;;;;;;;;;;;;;;;;;;;
2021/07/24 14:06:43;;;;;;;;;;;23.50;80.00;;;;;;5043600;28;19985;-84
2021/07/24 14:09:09;;;;;;;;;;;23.50;80.30;;;;;;5032496;28;19916;-84
2021/07/24 14:11:44;;;;;;;;;;;23.50;80.70;;;;;;5061639;28;19913;-84
2021/07/24 14:14:20;;;;;;;;;;;;;;;;;;;;;
2021/07/24 14:16:48;;;;;;;;;;;23.30;82.30;;;;;;5063920;28;20008;-84
2021/07/24 14:19:14;;;;;;;;;;;23.20;83.10;;;;;;5063184;28;19912;-83
2021/07/24 14:21:42;;;;;;;;;;;23.10;83.90;;;;;;5060642;28;19987;-84
2021/07/24 14:24:16;;;;;;;;;;;22.90;84.40;;;;;;5044554;28;19920;-84
2021/07/24 14:26:42;;;;;;;;;;;22.90;85.20;;;;;;5062674;28;19908;-84
2021/07/24 14:29:13;;;;;;;;;;;22.90;85.60;;;;;;5045203;28;19920;-84
2021/07/24 14:31:40;;;;;;;;;;;22.90;85.70;;;;;;5045510;28;19931;-84
2021/07/24 14:34:08;;;;;;;;;;;22.80;85.90;;;;;;5062639;28;19959;-84